Terminal Aerodrome Forecast
Issued by NWS

Home | Current Version | Previous Version | Text Only | Print | Product List | Glossary On
Versions: 1 2 3 4 5 6 7 8 9 10 11 12 13 14 15 16 17 18 19 20 21
000
FTUS44 KBMX 032124 AAA
TAFTCL
TAF AMD
KTCL 032124Z 0321/0418 26010KT P6SM VCSH BKN040
      TEMPO 0321/0323 2SM TSRA BR BKN025CB OVC040
     FM040000 17004KT P6SM BKN050
     FM040500 18006KT 3SM +TSRA BKN015CB OVC030
     FM041000 21010KT P6SM OVC040=

USA.gov is the U.S. government's official web portal to all federal, state and local government web resources and services.